Time;durP1;ratioP1;P1;durP2;ratioP2;P2;SDS_P1;SDS_P2;PMS_P1;PMS_P2;Temp;Humidity;BMP_temperature;BMP_pressure;BME280_temperature;BME280_humidity;BME280_pressure;Samples;Min_cycle;Max_cycle;Signal;HPM_P1;HPM_P2
2021/07/01 00:00:16;;;;;;;11.95;5.47;;;;;;;16.99;79.60;97486.69;1847590;76;21079;-89
2021/07/01 00:02:44;;;;;;;9.28;5.83;;;;;;;17.02;79.20;97478.41;1879042;76;20883;-81
2021/07/01 00:05:13;;;;;;;5.33;4.75;;;;;;;16.99;78.48;97481.22;1876131;76;21738;-80
2021/07/01 00:07:40;;;;;;;5.78;3.90;;;;;;;16.91;78.54;97479.34;1879280;76;20938;-89
2021/07/01 00:10:18;;;;;;;6.53;5.03;;;;;;;16.82;78.47;97478.61;1879327;76;21059;-89
2021/07/01 00:12:44;;;;;;;7.37;5.30;;;;;;;16.75;78.55;97470.96;1879323;76;20926;-82
2021/07/01 00:15:13;;;;;;;7.37;5.22;;;;;;;16.75;78.87;97475.60;1879357;76;21004;-80
2021/07/01 00:17:41;;;;;;;8.40;5.65;;;;;;;16.76;78.88;97473.13;1879165;76;21871;-81
2021/07/01 00:20:08;;;;;;;8.60;5.45;;;;;;;16.74;79.80;97467.97;1879454;76;21020;-89
2021/07/01 00:22:34;;;;;;;7.20;5.62;;;;;;;16.74;80.12;97461.13;1879442;76;20958;-88
2021/07/01 00:25:00;;;;;;;9.13;5.37;;;;;;;16.77;80.04;97452.27;1879907;76;21390;-89
2021/07/01 00:27:28;;;;;;;9.15;5.87;;;;;;;16.79;79.26;97453.30;1879263;76;20946;-80
2021/07/01 00:29:55;;;;;;;8.73;5.47;;;;;;;16.71;79.06;97453.59;1879729;76;21399;-81
2021/07/01 00:32:21;;;;;;;6.60;5.12;;;;;;;16.63;80.20;97448.95;1879173;76;20872;-89
2021/07/01 00:34:47;;;;;;;11.03;5.30;;;;;;;16.60;79.13;97444.96;1879959;76;21032;-80
2021/07/01 00:37:13;;;;;;;7.72;5.17;;;;;;;16.50;82.44;97448.66;1879426;76;20795;-86
2021/07/01 00:39:39;;;;;;;9.60;5.47;;;;;;;16.49;81.41;97445.66;1879667;76;20973;-81
2021/07/01 00:42:06;;;;;;;9.53;6.35;;;;;;;16.50;81.61;97441.83;1879089;76;21386;-81
2021/07/01 00:44:32;;;;;;;9.63;6.72;;;;;;;16.52;80.94;97446.39;1879453;76;21024;-87
2021/07/01 00:46:58;;;;;;;12.90;6.80;;;;;;;16.43;81.34;97447.02;1879453;76;20977;-89
2021/07/01 00:49:24;;;;;;;8.58;5.60;;;;;;;16.38;81.39;97447.98;1879384;76;20965;-80
2021/07/01 00:51:51;;;;;;;7.05;4.87;;;;;;;16.34;81.04;97445.70;1878813;75;20938;-80
2021/07/01 00:54:17;;;;;;;11.60;5.15;;;;;;;16.29;81.49;97448.04;1873277;76;21744;-80
2021/07/01 00:56:44;;;;;;;8.75;6.47;;;;;;;16.31;81.21;97457.27;1872913;76;20899;-89
2021/07/01 00:59:10;;;;;;;11.40;6.08;;;;;;;16.37;81.24;97458.70;1873429;76;20979;-80
2021/07/01 01:01:37;;;;;;;8.73;6.08;;;;;;;16.34;82.37;97456.06;1851294;76;21001;-88
2021/07/01 01:04:03;;;;;;;10.45;6.53;;;;;;;16.38;81.81;97464.96;1873411;76;20985;-88
2021/07/01 01:06:29;;;;;;;9.10;5.62;;;;;;;16.43;81.67;97470.25;1873112;76;21378;-88
2021/07/01 01:08:56;;;;;;;7.28;5.12;;;;;;;16.46;81.28;97470.37;1873493;76;21033;-80
2021/07/01 01:11:27;;;;;;;7.12;4.97;;;;;;;16.50;80.76;97476.80;1873006;76;20882;-88
2021/07/01 01:13:51;;;;;;;6.83;4.87;;;;;;;16.59;80.77;97478.12;1872685;76;20950;-88
2021/07/01 01:16:17;;;;;;;7.45;5.50;;;;;;;16.65;80.79;97480.88;1873225;76;21154;-81
2021/07/01 01:18:43;;;;;;;5.65;4.65;;;;;;;16.69;80.51;97479.13;1873342;76;21084;-81
2021/07/01 01:21:15;;;;;;;9.15;5.97;;;;;;;16.76;80.21;97485.44;1873050;76;20913;-88
2021/07/01 01:23:41;;;;;;;9.53;6.40;;;;;;;16.73;80.88;97481.41;1872158;76;20961;-89
2021/07/01 01:26:07;;;;;;;7.45;5.53;;;;;;;16.64;80.72;97466.97;1873345;76;20982;-81
2021/07/01 01:28:33;;;;;;;6.12;5.50;;;;;;;16.62;81.09;97469.23;1873443;76;21023;-81
2021/07/01 01:30:59;;;;;;;10.55;5.85;;;;;;;16.55;80.50;97466.22;1873165;76;21152;-81
2021/07/01 01:33:25;;;;;;;6.03;4.70;;;;;;;16.53;81.93;97465.76;1873530;76;21052;-80
2021/07/01 01:35:51;;;;;;;9.73;6.60;;;;;;;16.49;80.92;97465.63;1873279;76;21080;-81
2021/07/01 01:38:18;;;;;;;7.65;4.80;;;;;;;16.47;81.37;97468.45;1873550;76;20985;-80
2021/07/01 01:40:46;;;;;;;12.10;4.95;;;;;;;16.48;81.95;97465.94;1873522;76;20887;-81
2021/07/01 01:43:15;;;;;;;5.40;4.12;;;;;;;16.47;81.62;97463.77;1879943;76;21402;-81
2021/07/01 01:45:41;;;;;;;8.78;5.35;;;;;;;16.47;81.08;97462.41;1873053;76;20926;-80
2021/07/01 01:48:07;;;;;;;7.33;4.75;;;;;;;16.50;80.93;97460.97;1851334;76;21032;-85
2021/07/01 01:50:33;;;;;;;7.80;4.95;;;;;;;16.52;80.86;97465.53;1873172;76;21485;-87
2021/07/01 01:53:00;;;;;;;8.30;4.78;;;;;;;16.57;80.22;97461.22;1875843;76;21295;-80
2021/07/01 01:55:26;;;;;;;5.87;4.92;;;;;;;16.50;81.83;97465.86;1879429;76;21783;-80
2021/07/01 01:57:52;;;;;;;6.22;5.30;;;;;;;16.54;81.23;97465.99;1879072;76;21002;-80
2021/07/01 02:00:20;;;;;;;6.78;4.47;;;;;;;16.52;81.31;97468.27;1879387;76;21002;-88
2021/07/01 02:02:47;;;;;;;9.93;4.72;;;;;;;16.49;80.74;97466.17;1879108;76;20952;-80
2021/07/01 02:05:13;;;;;;;6.50;4.83;;;;;;;16.45;80.26;97470.14;1879460;76;21017;-81
2021/07/01 02:07:39;;;;;;;5.70;4.28;;;;;;;16.39;80.67;97474.20;1878985;76;20956;-81
2021/07/01 02:10:12;;;;;;;8.63;4.28;;;;;;;16.34;80.59;97475.77;1879115;76;20945;-80
2021/07/01 02:12:38;;;;;;;5.60;4.53;;;;;;;16.27;81.51;97474.11;1878767;76;20933;-81
2021/07/01 02:15:07;;;;;;;6.85;5.28;;;;;;;16.23;81.11;97473.95;1879477;76;20882;-80
2021/07/01 02:17:34;;;;;;;5.30;4.33;;;;;;;16.20;81.59;97476.55;1879219;76;20927;-88
2021/07/01 02:20:10;;;;;;;6.58;4.45;;;;;;;16.17;80.68;97482.69;1879409;76;21106;-88
2021/07/01 02:22:36;;;;;;;6.00;4.22;;;;;;;16.12;81.69;97485.59;1879129;76;20985;-88
2021/07/01 02:25:03;;;;;;;5.75;4.83;;;;;;;16.13;82.84;97490.73;1879499;76;21044;-88
2021/07/01 02:27:29;;;;;;;8.50;4.92;;;;;;;16.16;82.54;97498.29;1879090;76;21012;-80
2021/07/01 02:29:55;;;;;;;6.67;3.92;;;;;;;16.21;81.81;97500.83;1879429;76;20932;-80
2021/07/01 02:32:21;;;;;;;6.47;4.58;;;;;;;16.19;82.02;97500.36;1879359;76;20961;-88
2021/07/01 02:34:48;;;;;;;7.05;5.22;;;;;;;16.20;81.41;97498.42;1879350;76;21020;-80
2021/07/01 02:37:14;;;;;;;5.90;4.83;;;;;;;16.16;82.11;97495.56;1879406;76;21168;-88
2021/07/01 02:39:40;;;;;;;6.60;4.95;;;;;;;16.12;83.83;97490.50;1879575;76;20894;-88
2021/07/01 02:42:07;;;;;;;4.30;3.90;;;;;;;16.13;83.58;97494.83;1879179;76;21369;-89
2021/07/01 02:44:33;;;;;;;7.50;4.95;;;;;;;16.21;82.82;97493.19;1879574;76;21123;-81
2021/07/01 02:46:59;;;;;;;9.30;5.53;;;;;;;16.30;82.33;97493.95;1878978;76;21015;-81
2021/07/01 02:49:25;;;;;;;8.53;4.60;;;;;;;16.29;82.44;97486.88;1879346;76;20885;-89
2021/07/01 02:51:54;;;;;;;7.97;4.37;;;;;;;16.34;82.36;97488.07;1879403;76;20942;-81
2021/07/01 02:54:22;;;;;;;6.33;5.08;;;;;;;16.33;81.90;97500.14;1879129;76;20888;-81
2021/07/01 02:56:49;;;;;;;10.08;4.37;;;;;;;16.31;82.57;97501.02;1879188;76;21252;-81
2021/07/01 02:59:16;;;;;;;6.60;4.85;;;;;;;16.29;82.82;97506.81;1879089;76;21032;-89
2021/07/01 03:01:43;;;;;;;10.50;5.60;;;;;;;16.34;83.35;97500.37;1879112;76;21299;-81
2021/07/01 03:04:09;;;;;;;5.97;4.15;;;;;;;16.44;83.74;97497.83;1875953;76;20937;-88
2021/07/01 03:06:35;;;;;;;7.50;4.83;;;;;;;16.51;83.22;97501.65;1879106;76;21001;-81
2021/07/01 03:09:02;;;;;;;7.58;4.00;;;;;;;16.51;83.08;97493.45;1879286;76;21307;-81
2021/07/01 03:11:28;;;;;;;10.60;4.78;;;;;;;16.49;82.62;97494.34;1879221;76;21001;-86
2021/07/01 03:13:54;;;;;;;7.60;4.72;;;;;;;16.52;82.32;97492.31;1879554;76;20981;-88
2021/07/01 03:16:20;;;;;;;7.90;4.37;;;;;;;16.46;82.92;97486.78;1879249;76;21370;-81
2021/07/01 03:18:47;;;;;;;8.65;4.90;;;;;;;16.45;83.19;97495.33;1879169;76;20913;-81
2021/07/01 03:21:14;;;;;;;8.88;5.12;;;;;;;16.46;82.40;97490.09;1879125;76;20978;-88
2021/07/01 03:23:40;;;;;;;10.85;6.05;;;;;;;16.42;83.32;97485.86;1879172;76;20977;-80
2021/07/01 03:26:06;;;;;;;7.85;5.00;;;;;;;16.39;83.71;97489.23;1879236;76;20917;-80
2021/07/01 03:28:32;;;;;;;6.42;5.08;;;;;;;16.39;84.33;97484.33;1847834;76;20961;-88
2021/07/01 03:30:58;;;;;;;7.65;4.10;;;;;;;16.38;84.60;97493.67;1876233;76;20882;-88
2021/07/01 03:33:24;;;;;;;5.80;4.15;;;;;;;16.34;84.98;97493.55;1879252;76;21130;-88
2021/07/01 03:35:50;;;;;;;9.58;5.47;;;;;;;16.40;85.35;97498.23;1879243;76;20863;-87
2021/07/01 03:38:16;;;;;;;8.43;4.60;;;;;;;16.41;85.93;97489.73;1879306;76;20989;-88
2021/07/01 03:40:41;;;;;;;5.33;4.60;;;;;;;16.44;86.83;97484.16;1879423;76;21476;-80
2021/07/01 03:43:08;;;;;;;5.85;5.25;;;;;;;16.50;86.50;97480.91;1879236;76;20859;-87
2021/07/01 03:45:34;;;;;;;5.97;4.65;;;;;;;16.59;85.41;97478.12;1879397;76;21738;-80
2021/07/01 03:48:00;;;;;;;6.25;4.70;;;;;;;16.63;84.45;97477.67;1879372;76;20853;-88
2021/07/01 03:50:26;;;;;;;5.78;4.30;;;;;;;16.62;84.37;97483.71;1879635;76;21020;-88
2021/07/01 03:52:52;;;;;;;5.42;4.72;;;;;;;16.61;84.58;97472.54;1878062;76;21025;-81
2021/07/01 03:55:19;;;;;;;7.50;4.95;;;;;;;16.66;83.71;97470.16;1873546;76;21078;-81
2021/07/01 03:57:46;;;;;;;6.45;4.70;;;;;;;16.73;83.50;97475.14;1873050;76;21062;-88
2021/07/01 04:00:15;;;;;;;7.15;5.53;;;;;;;16.80;83.03;97477.59;1872978;76;20959;-81
2021/07/01 04:02:41;;;;;;;7.87;5.00;;;;;;;16.81;82.98;97481.13;1851578;76;20895;-80
2021/07/01 04:05:08;;;;;;;7.22;4.90;;;;;;;16.83;83.28;97482.95;1851230;76;20982;-88
2021/07/01 04:07:34;;;;;;;5.40;4.72;;;;;;;16.80;86.06;97485.80;1873214;76;20926;-88
2021/07/01 04:10:06;;;;;;;8.83;5.12;;;;;;;16.82;84.51;97495.03;1873054;76;21304;-80
2021/07/01 04:12:28;;;;;;;9.03;4.72;;;;;;;16.87;84.61;97496.22;1872538;76;21474;-86
2021/07/01 04:14:54;;;;;;;6.20;5.10;;;;;;;16.87;84.50;97496.22;1873192;76;20870;-87
2021/07/01 04:17:20;;;;;;;6.17;5.25;;;;;;;16.92;85.28;97497.39;1879997;76;20827;-87
2021/07/01 04:19:46;;;;;;;8.98;6.22;;;;;;;17.03;85.14;97501.89;1873361;76;20838;-88
2021/07/01 04:22:12;;;;;;;9.25;5.97;;;;;;;17.19;84.47;97505.06;1873076;76;21355;-87
2021/07/01 04:24:38;;;;;;;8.33;6.30;;;;;;;17.24;84.69;97505.98;1873352;76;20942;-80
2021/07/01 04:27:05;;;;;;;7.80;6.37;;;;;;;17.26;84.19;97500.96;1873178;76;20981;-88
2021/07/01 04:29:31;;;;;;;6.50;5.62;;;;;;;17.26;85.50;97500.42;1880005;76;21417;-88
2021/07/01 04:31:57;;;;;;;8.95;5.65;;;;;;;17.34;84.06;97499.52;1873051;76;20906;-87
2021/07/01 04:34:23;;;;;;;6.97;5.58;;;;;;;17.38;84.40;97506.51;1873276;76;21263;-87
2021/07/01 04:36:49;;;;;;;6.67;5.65;;;;;;;17.48;84.30;97504.14;1873135;76;20811;-80
2021/07/01 04:39:15;;;;;;;8.65;5.67;;;;;;;17.58;84.14;97504.28;1873327;76;20854;-88
2021/07/01 04:41:41;;;;;;;6.25;5.65;;;;;;;17.61;83.56;97503.63;1873589;76;21314;-88
2021/07/01 04:44:08;;;;;;;7.60;5.00;;;;;;;17.60;83.39;97510.80;1873221;76;20977;-81
2021/07/01 04:46:34;;;;;;;7.85;4.87;;;;;;;17.50;83.18;97506.54;1851597;76;21133;-88
2021/07/01 04:49:00;;;;;;;8.13;6.50;;;;;;;17.53;83.09;97507.26;1873244;76;20916;-80
2021/07/01 04:51:27;;;;;;;9.03;5.37;;;;;;;17.56;83.02;97507.14;1873228;76;20854;-88
2021/07/01 04:53:53;;;;;;;7.12;6.25;;;;;;;17.61;82.41;97501.47;1873090;76;20899;-81
2021/07/01 04:56:19;;;;;;;7.28;5.20;;;;;;;17.59;82.60;97500.98;1873041;76;21413;-81
2021/07/01 04:58:45;;;;;;;8.35;6.15;;;;;;;17.68;82.62;97500.31;1873396;76;21237;-88
2021/07/01 05:01:12;;;;;;;8.50;5.80;;;;;;;17.81;82.50;97502.56;1873270;76;20985;-80
2021/07/01 05:03:38;;;;;;;6.37;5.78;;;;;;;17.93;83.09;97501.20;1873337;76;20886;-88
2021/07/01 05:06:04;;;;;;;11.15;5.40;;;;;;;17.93;82.26;97499.84;1873283;76;20922;-88
2021/07/01 05:08:30;;;;;;;6.20;5.28;;;;;;;18.00;82.27;97495.97;1872933;76;21080;-88
2021/07/01 05:10:56;;;;;;;7.95;5.37;;;;;;;18.06;82.40;97502.05;1873389;76;21118;-81
2021/07/01 05:13:22;;;;;;;9.93;6.55;;;;;;;18.06;82.98;97502.05;1873161;76;21065;-80
2021/07/01 05:15:48;;;;;;;5.97;4.97;;;;;;;18.11;82.50;97508.08;1851311;76;21160;-88
2021/07/01 05:18:14;;;;;;;6.40;5.42;;;;;;;18.20;82.39;97504.69;1880229;76;21021;-87
2021/07/01 05:20:42;;;;;;;6.95;5.58;;;;;;;18.31;81.49;97503.66;1851457;76;20899;-88
2021/07/01 05:23:08;;;;;;;9.28;6.08;;;;;;;18.37;81.42;97500.90;1873628;76;21207;-81
2021/07/01 05:25:34;;;;;;;8.13;6.28;;;;;;;18.55;81.29;97503.66;1872874;76;20846;-88
2021/07/01 05:28:10;;;;;;;11.28;6.30;;;;;;;18.73;81.07;97498.76;1873439;76;21009;-87
2021/07/01 05:30:37;;;;;;;8.68;5.78;;;;;;;18.91;80.68;97498.50;1878284;76;20938;-88
2021/07/01 05:33:03;;;;;;;11.80;6.67;;;;;;;19.00;80.21;97495.05;1873372;76;21013;-87
2021/07/01 05:35:30;;;;;;;8.93;8.03;;;;;;;19.00;79.82;97499.96;1872844;76;21998;-80
2021/07/01 05:37:56;;;;;;;11.18;7.25;;;;;;;18.99;79.97;97503.05;1873244;76;21024;-88
2021/07/01 05:40:22;;;;;;;10.75;6.80;;;;;;;18.99;79.74;97503.86;1873137;76;20919;-81
2021/07/01 05:42:48;;;;;;;16.12;8.90;;;;;;;19.16;79.60;97504.16;1873005;76;20950;-88
2021/07/01 05:45:18;;;;;;;13.38;8.05;;;;;;;19.21;79.07;97505.27;1873046;76;21576;-88
2021/07/01 05:47:45;;;;;;;8.88;7.65;;;;;;;19.27;79.33;97507.20;1873486;76;21955;-81
2021/07/01 05:50:11;;;;;;;10.63;7.12;;;;;;;19.40;79.37;97510.14;1850915;76;20886;-80
2021/07/01 05:52:39;;;;;;;10.20;6.95;;;;;;;19.49;79.03;97508.04;1873044;76;20924;-81
2021/07/01 05:55:06;;;;;;;9.90;5.70;;;;;;;19.68;79.94;97515.08;1877976;76;20981;-87
2021/07/01 05:57:32;;;;;;;6.55;5.42;;;;;;;19.96;78.57;97514.23;1879191;76;21012;-81
2021/07/01 05:59:59;;;;;;;6.53;5.47;;;;;;;20.12;77.38;97517.80;1879363;76;21172;-81
2021/07/01 06:02:25;;;;;;;6.72;5.22;;;;;;;20.39;76.38;97516.10;1878944;76;20997;-81
2021/07/01 06:04:51;;;;;;;6.12;5.33;;;;;;;20.73;76.23;97511.03;1879158;76;20857;-89
2021/07/01 06:07:24;;;;;;;5.53;4.92;;;;;;;20.95;75.32;97509.58;1879102;76;20946;-89
2021/07/01 06:09:53;;;;;;;8.20;5.53;;;;;;;20.98;74.43;97512.39;1879234;76;20922;-88
2021/07/01 06:12:22;;;;;;;7.83;4.50;;;;;;;21.10;74.49;97509.50;1878923;76;20890;-89
2021/07/01 06:14:48;;;;;;;6.72;3.98;;;;;;;21.08;69.77;97513.20;1879349;76;21071;-86
2021/07/01 06:17:16;;;;;;;6.22;4.50;;;;;;;21.09;72.35;97514.80;1879016;76;20977;-89
2021/07/01 06:19:42;;;;;;;4.95;3.77;;;;;;;21.00;71.95;97514.20;1879265;76;20942;-89
2021/07/01 06:22:08;;;;;;;7.83;3.02;;;;;;;20.97;72.00;97516.31;1879174;76;20946;-82
2021/07/01 06:24:34;;;;;;;8.20;2.95;;;;;;;20.85;71.94;97524.70;1879283;76;21139;-89
2021/07/01 06:27:01;;;;;;;4.30;2.52;;;;;;;20.71;70.89;97523.78;1878899;76;20867;-89
2021/07/01 06:29:27;;;;;;;4.35;2.00;;;;;;;20.45;65.77;97526.30;1879380;76;20934;-89
2021/07/01 06:31:53;;;;;;;3.92;1.87;;;;;;;20.28;67.25;97525.48;1879313;76;20882;-81
2021/07/01 06:34:20;;;;;;;2.77;1.92;;;;;;;20.31;66.84;97527.29;1879195;76;20882;-81
2021/07/01 06:36:46;;;;;;;5.80;2.27;;;;;;;20.28;67.01;97526.06;1879140;76;21148;-81
2021/07/01 06:39:12;;;;;;;5.25;2.40;;;;;;;20.19;66.88;97527.61;1847785;76;20938;-81
2021/07/01 06:41:38;;;;;;;4.85;2.08;;;;;;;20.25;66.82;97523.99;1879276;76;21390;-81
2021/07/01 06:44:06;;;;;;;4.05;2.25;;;;;;;20.20;66.35;97525.08;1879180;76;20895;-81
2021/07/01 06:46:33;;;;;;;3.42;2.20;;;;;;;20.21;66.05;97525.88;1879358;76;20937;-80
2021/07/01 06:49:00;;;;;;;2.55;1.87;;;;;;;20.33;66.94;97529.90;1847672;76;21061;-87
2021/07/01 06:51:26;;;;;;;2.65;1.65;;;;;;;20.40;66.10;97531.45;1879182;76;20977;-88
2021/07/01 06:53:53;;;;;;;2.37;1.70;;;;;;;20.51;66.47;97531.19;1879161;76;20858;-88
2021/07/01 06:56:22;;;;;;;4.00;1.87;;;;;;;20.39;64.90;97531.81;1878993;76;21358;-87
2021/07/01 06:58:48;;;;;;;3.12;1.72;;;;;;;20.57;65.76;97535.83;1879502;76;20974;-81
2021/07/01 07:01:14;;;;;;;4.50;1.75;;;;;;;20.41;64.77;97535.80;1879249;76;21100;-81
2021/07/01 07:03:40;;;;;;;4.50;2.10;;;;;;;20.42;65.62;97534.64;1879291;76;20993;-81
2021/07/01 07:06:06;;;;;;;2.58;1.98;;;;;;;20.46;65.04;97539.70;1847571;76;20933;-88
2021/07/01 07:08:32;;;;;;;4.15;2.33;;;;;;;20.37;65.24;97534.13;1847865;76;20990;-81
2021/07/01 07:10:59;;;;;;;2.62;2.40;;;;;;;20.16;64.79;97531.05;1878972;76;20909;-81
2021/07/01 07:13:26;;;;;;;3.52;2.12;;;;;;;20.08;65.40;97533.97;1879455;76;21405;-81
2021/07/01 07:16:00;;;;;;;4.30;2.45;;;;;;;19.80;65.21;97532.06;1847235;76;21481;-81
2021/07/01 07:18:33;;;;;;;2.45;1.82;;;;;;;19.84;65.31;97541.22;1831806;76;21387;-82
2021/07/01 07:21:14;;;;;;;3.22;2.55;;;;;;;19.74;66.29;97544.48;1879039;76;20875;-81
2021/07/01 07:23:39;;;;;;;6.10;2.80;;;;;;;19.84;64.93;97541.80;1879143;76;20978;-89
2021/07/01 07:26:07;;;;;;;4.17;2.30;;;;;;;19.67;64.58;97542.91;1879010;76;20901;-82
2021/07/01 07:28:36;;;;;;;2.90;2.33;;;;;;;19.64;64.91;97546.34;1879327;76;20961;-82
2021/07/01 07:31:03;;;;;;;3.92;2.35;;;;;;;19.57;64.81;97547.52;1879304;76;20879;-83
2021/07/01 07:33:29;;;;;;;3.50;2.27;;;;;;;19.62;65.12;97550.02;1879242;76;21350;-82
2021/07/01 07:35:56;;;;;;;5.25;2.08;;;;;;;19.69;64.87;97545.53;1879491;76;20898;-82
2021/07/01 07:38:27;;;;;;;3.62;2.58;;;;;;;19.70;65.06;97544.95;1879090;76;21001;-81
2021/07/01 07:40:56;;;;;;;3.67;2.22;;;;;;;19.56;65.54;97541.22;1879097;76;21025;-81
2021/07/01 07:43:22;;;;;;;7.40;2.15;;;;;;;19.56;65.69;97546.72;1879203;76;20998;-90
2021/07/01 07:45:50;;;;;;;2.95;1.98;;;;;;;19.51;65.78;97546.16;1847624;76;21000;-82
2021/07/01 07:48:16;;;;;;;6.53;3.75;;;;;;;19.45;65.42;97545.02;1876531;76;21013;-89
2021/07/01 07:50:44;;;;;;;4.62;2.45;;;;;;;19.52;65.62;97546.37;1847489;76;21089;-90
2021/07/01 07:53:15;;;;;;;5.28;2.70;;;;;;;19.47;66.50;97542.48;1879444;76;20943;-82
2021/07/01 07:55:41;;;;;;;6.08;3.08;;;;;;;19.43;66.79;97546.52;1873548;76;20934;-81
2021/07/01 07:58:07;;;;;;;3.33;2.42;;;;;;;19.42;66.80;97548.47;1873600;76;20970;-86
2021/07/01 08:00:33;;;;;;;3.47;2.62;;;;;;;19.53;66.85;97543.84;1873002;76;20819;-89
2021/07/01 08:03:07;;;;;;;5.53;3.30;;;;;;;19.60;67.11;97544.88;1873268;76;21099;-81
2021/07/01 08:05:34;;;;;;;3.95;3.42;;;;;;;19.67;67.14;97542.34;1850990;76;21371;-85
2021/07/01 08:08:01;;;;;;;6.42;4.03;;;;;;;19.65;67.79;97538.31;1873266;76;20917;-81
2021/07/01 08:10:30;;;;;;;4.97;4.45;;;;;;;19.87;67.33;97535.02;1873017;76;20926;-89
2021/07/01 08:13:04;;;;;;;7.03;4.25;;;;;;;20.26;66.92;97525.62;1873167;76;21009;-89
2021/07/01 08:15:32;;;;;;;6.00;4.15;;;;;;;20.60;65.65;97529.63;1873178;76;21033;-81
2021/07/01 08:17:58;;;;;;;5.58;4.58;;;;;;;20.56;65.91;97524.60;1873271;76;20954;-81
2021/07/01 08:20:24;;;;;;;5.65;4.20;;;;;;;20.58;65.73;97526.41;1851037;76;21184;-80
2021/07/01 08:22:53;;;;;;;5.42;4.45;;;;;;;20.55;65.70;97526.55;1879747;76;20960;-80
2021/07/01 08:25:21;;;;;;;6.22;4.60;;;;;;;20.63;66.31;97525.36;1873326;76;20938;-80
2021/07/01 08:27:48;;;;;;;5.43;4.43;;;;;;;20.72;66.05;97525.96;1873086;76;21402;-88
2021/07/01 08:30:18;;;;;;;7.15;5.80;;;;;;;20.81;65.54;97522.44;1872871;76;21326;-88
2021/07/01 08:32:46;;;;;;;6.10;5.15;;;;;;;20.84;65.37;97515.62;1873257;76;20957;-81
2021/07/01 08:35:15;;;;;;;5.90;4.93;;;;;;;21.13;65.58;97516.27;1873421;76;21020;-87
2021/07/01 08:37:45;;;;;;;5.55;4.97;;;;;;;21.12;64.50;97522.36;1873197;76;20899;-88
2021/07/01 08:40:14;;;;;;;11.75;6.22;;;;;;;21.26;64.88;97526.56;1873344;76;21000;-81
2021/07/01 08:42:40;;;;;;;6.37;5.35;;;;;;;21.08;64.25;97522.84;1873277;76;20922;-88
2021/07/01 08:45:10;;;;;;;6.17;5.58;;;;;;;21.29;64.17;97540.45;1873292;76;20915;-81
2021/07/01 08:47:38;;;;;;;10.25;7.53;;;;;;;21.01;64.44;97539.78;1873006;76;21009;-88
2021/07/01 08:50:05;;;;;;;6.45;5.83;;;;;;;21.08;64.33;97546.25;1873324;76;20890;-89
2021/07/01 08:52:33;;;;;;;6.17;4.90;;;;;;;21.11;64.90;97548.31;1872978;76;21040;-89
2021/07/01 08:55:05;;;;;;;9.47;5.67;;;;;;;21.36;63.40;97542.55;1873277;76;20962;-89
2021/07/01 08:57:35;;;;;;;5.75;5.25;;;;;;;21.52;62.41;97539.14;1872987;76;20985;-88
2021/07/01 09:00:08;;;;;;;6.80;5.20;;;;;;;21.43;62.96;97533.63;1873273;76;20939;-81
2021/07/01 09:02:41;;;;;;;6.50;4.67;;;;;;;21.47;63.23;97535.31;1851297;76;20946;-87
2021/07/01 09:05:13;;;;;;;6.53;4.25;;;;;;;21.40;63.35;97537.34;1872769;76;22149;-89
2021/07/01 09:07:40;;;;;;;9.00;4.60;;;;;;;21.32;63.96;97544.44;1873037;76;21288;-80
2021/07/01 09:10:10;;;;;;;8.00;4.05;;;;;;;21.02;64.20;97546.89;1873600;76;20919;-80
2021/07/01 09:12:41;;;;;;;6.58;4.17;;;;;;;20.89;64.53;97542.67;1873078;76;21391;-88
2021/07/01 09:15:09;;;;;;;9.83;4.85;;;;;;;20.96;64.92;97540.88;1873341;76;20986;-81
2021/07/01 09:17:36;;;;;;;7.35;4.90;;;;;;;20.82;64.91;97546.05;1873068;76;21201;-88
2021/07/01 09:20:06;;;;;;;6.53;4.78;;;;;;;20.86;64.89;97540.64;1873089;76;21335;-81
2021/07/01 09:22:34;;;;;;;8.40;5.40;;;;;;;20.65;64.87;97542.30;1873073;76;20934;-90
2021/07/01 09:25:00;;;;;;;8.80;4.25;;;;;;;20.68;64.93;97542.95;1872402;76;20887;-81
2021/07/01 09:27:27;;;;;;;6.58;5.25;;;;;;;20.68;65.12;97547.91;1873086;76;20950;-81
2021/07/01 09:29:54;;;;;;;9.48;4.97;;;;;;;20.62;65.33;97556.79;1873395;76;21154;-89
2021/07/01 09:32:20;;;;;;;9.88;5.65;;;;;;;20.43;67.54;97569.86;1872935;76;20871;-87
2021/07/01 09:34:48;;;;;;;7.70;5.45;;;;;;;20.32;67.87;97585.28;1873205;76;20976;-81
2021/07/01 09:37:14;;;;;;;9.48;4.58;;;;;;;19.99;70.67;97589.92;1873370;76;20942;-89
2021/07/01 09:39:41;;;;;;;7.30;4.42;;;;;;;19.70;71.46;97594.42;1880318;76;21005;-89
2021/07/01 09:42:08;;;;;;;5.92;4.10;;;;;;;19.08;75.70;97601.99;1872979;76;21355;-80
2021/07/01 09:44:35;;;;;;;6.97;4.75;;;;;;;18.74;77.59;97603.84;1873050;76;21005;-81
2021/07/01 09:47:08;;;;;;;6.67;4.90;;;;;;;18.46;78.69;97603.69;1872996;76;20879;-81
2021/07/01 09:49:40;;;;;;;6.80;4.78;;;;;;;18.33;78.21;97606.96;1872744;76;20977;-88
2021/07/01 09:52:11;;;;;;;8.78;5.00;;;;;;;18.04;81.79;97601.88;1873107;76;20963;-81
2021/07/01 09:54:39;;;;;;;7.30;5.00;;;;;;;18.04;81.64;97610.67;1873888;76;21098;-89
2021/07/01 09:57:18;;;;;;;7.30;4.42;;;;;;;18.03;80.47;97619.47;1879368;76;21310;-88
2021/07/01 10:00:02;;;;;;;7.67;5.35;;;;;;;17.87;83.67;97619.06;1849602;76;20969;-81
2021/07/01 10:02:29;;;;;;;6.05;4.95;;;;;;;17.93;81.47;97625.91;1879121;76;20977;-80
2021/07/01 10:04:56;;;;;;;5.70;4.87;;;;;;;17.95;82.38;97630.52;1879274;76;20981;-80
2021/07/01 10:07:23;;;;;;;7.10;4.80;;;;;;;18.07;80.04;97633.28;1879301;76;20915;-88
2021/07/01 10:09:53;;;;;;;6.28;4.67;;;;;;;18.14;79.54;97638.23;1879472;76;21379;-81
2021/07/01 10:12:26;;;;;;;8.18;4.53;;;;;;;18.21;79.79;97642.59;1878867;76;21008;-87
2021/07/01 10:14:56;;;;;;;5.53;4.53;;;;;;;18.12;79.72;97626.23;1876684;76;20984;-81
2021/07/01 10:17:23;;;;;;;11.78;7.83;;;;;;;18.26;80.08;97644.53;1879030;76;20993;-89
2021/07/01 10:19:50;;;;;;;8.58;7.55;;;;;;;18.35;79.91;97638.95;1879400;76;21654;-81
2021/07/01 10:22:21;;;;;;;7.92;6.22;;;;;;;18.40;79.67;97636.01;1878681;76;20962;-89
2021/07/01 10:24:52;;;;;;;6.35;5.33;;;;;;;18.36;82.36;97631.52;1879407;76;20922;-89
2021/07/01 10:27:32;;;;;;;6.60;5.72;;;;;;;18.36;81.64;97625.47;1878168;76;21354;-81
2021/07/01 10:30:01;;;;;;;9.68;6.47;;;;;;;18.40;82.40;97620.92;1879636;76;20942;-89
2021/07/01 10:32:44;;;;;;;10.35;5.20;;;;;;;18.42;81.62;97617.27;1875698;76;21100;-88
2021/07/01 10:35:24;;;;;;;6.12;5.47;;;;;;;18.45;80.90;97618.52;1879097;76;20961;-89
2021/07/01 10:38:10;;;;;;;9.88;5.28;;;;;;;18.47;81.67;97608.02;1879092;76;20945;-81
2021/07/01 10:40:43;;;;;;;9.03;5.75;;;;;;;18.46;80.94;97607.22;1879230;76;20966;-81
2021/07/01 10:43:09;;;;;;;7.12;5.97;;;;;;;18.51;80.34;97602.87;1879079;76;20957;-88
2021/07/01 10:45:36;;;;;;;6.03;5.40;;;;;;;18.60;80.31;97600.81;1879247;76;21840;-89
2021/07/01 10:48:16;;;;;;;8.38;4.42;;;;;;;18.75;81.19;97596.62;1879032;76;20867;-89
2021/07/01 10:50:44;;;;;;;12.00;5.47;;;;;;;18.81;80.56;97592.52;1879363;76;20997;-81
2021/07/01 10:53:32;;;;;;;5.92;5.30;;;;;;;18.97;82.59;97587.14;1879281;76;20930;-88
2021/07/01 10:56:08;;;;;;;6.08;5.40;;;;;;;19.12;80.98;97575.42;1875286;75;20930;-83
2021/07/01 10:58:38;;;;;;;6.95;5.37;;;;;;;19.20;80.36;97581.94;1873062;76;21179;-89
2021/07/01 11:01:05;;;;;;;6.45;4.75;;;;;;;19.37;79.48;97574.00;1873135;76;20906;-81
2021/07/01 11:03:38;;;;;;;6.33;5.60;;;;;;;19.56;79.03;97573.36;1872968;76;20922;-89
2021/07/01 11:06:08;;;;;;;6.83;4.67;;;;;;;19.73;79.06;97576.64;1838941;78;21028;-82
2021/07/01 11:08:42;;;;;;;7.30;4.90;;;;;;;19.90;78.58;97587.91;1836363;77;21004;-83
2021/07/01 11:11:32;;;;;;;;;;;;;;;;;;;;;
2021/07/01 11:14:04;;;;;;;7.25;3.90;;;;;;;20.31;76.19;97591.94;1805439;77;20894;-90
2021/07/01 11:16:42;;;;;;;7.67;4.30;;;;;;;20.56;75.47;97589.28;1787830;80;21048;-83
2021/07/01 11:19:15;;;;;;;7.50;4.10;;;;;;;20.97;73.82;97589.88;1815771;78;21000;-89
2021/07/01 11:21:50;;;;;;;11.28;10.35;;;;;;;21.28;73.61;97589.05;1785871;80;20949;-81
2021/07/01 11:24:23;;;;;;;3.55;3.25;;;;;;;22.72;70.91;97592.21;1822189;78;21927;-80
2021/07/01 11:26:53;;;;;;;3.87;2.37;;;;;;;24.68;65.62;97591.19;1821208;78;21484;-84
2021/07/01 11:29:43;;;;;;;3.75;2.20;;;;;;;26.24;59.93;97591.91;1821026;77;21428;-88
2021/07/01 11:32:28;;;;;;;2.10;1.80;;;;;;;27.93;57.51;97590.00;1821874;78;20933;-89
2021/07/01 11:34:55;;;;;;;3.45;2.30;;;;;;;29.78;49.17;97592.13;1822207;78;20937;-81
2021/07/01 11:37:36;;;;;;;3.05;1.90;;;;;;;29.37;49.09;97592.77;1822345;78;21687;-81